Time;durP1;ratioP1;P1;durP2;ratioP2;P2;SDS_P1;SDS_P2;PMS_P1;PMS_P2;Temp;Humidity;BMP_temperature;BMP_pressure;BME280_temperature;BME280_humidity;BME280_pressure;Samples;Min_cycle;Max_cycle;Signal;HPM_P1;HPM_P2
2022/07/20 06:58:42;;;;;;;21.80;13.38;;;;;;;25.64;45.60;101550.34;6233548;22;20035;-64
2022/07/20 07:01:07;;;;;;;22.80;13.32;;;;;;;25.71;45.76;101547.81;6275284;22;20014;-66
2022/07/20 07:03:33;;;;;;;20.05;13.43;;;;;;;25.81;45.46;101542.94;6273145;22;20375;-66
2022/07/20 07:05:59;;;;;;;17.38;12.80;;;;;;;25.80;45.78;101544.97;6274176;22;20003;-67
2022/07/20 07:08:24;;;;;;;21.40;13.20;;;;;;;25.81;45.85;101549.47;6274653;22;20015;-67
2022/07/20 07:10:49;;;;;;;18.60;13.30;;;;;;;25.84;45.69;101540.25;6274065;22;20011;-66
2022/07/20 07:13:15;;;;;;;21.67;13.57;;;;;;;25.89;45.74;101525.00;6274984;22;20090;-68
2022/07/20 07:15:40;;;;;;;21.20;13.85;;;;;;;25.85;45.74;101519.16;6274407;22;20313;-68
2022/07/20 07:18:05;;;;;;;18.73;13.55;;;;;;;25.89;45.35;101522.16;6273880;22;20054;-68
2022/07/20 07:20:30;;;;;;;18.58;13.40;;;;;;;25.81;45.71;101523.88;6275503;22;20007;-68
2022/07/20 07:22:56;;;;;;;18.88;13.27;;;;;;;25.93;45.84;101531.69;6275126;22;20319;-67
2022/07/20 07:25:21;;;;;;;20.90;13.05;;;;;;;26.02;45.68;101543.06;6272891;22;20359;-65
2022/07/20 07:27:46;;;;;;;18.70;12.73;;;;;;;26.14;45.23;101549.69;6274165;22;20020;-67
2022/07/20 07:30:12;;;;;;;18.58;11.77;;;;;;;26.16;45.34;101567.22;6273902;22;20027;-67
2022/07/20 07:32:37;;;;;;;20.33;12.35;;;;;;;26.18;45.05;101564.88;6274194;22;20015;-66
2022/07/20 07:35:03;;;;;;;18.02;12.10;;;;;;;26.28;44.77;101569.34;6274190;22;20004;-66
2022/07/20 07:37:28;;;;;;;19.60;11.75;;;;;;;26.31;45.25;101579.22;6274642;22;20428;-68
2022/07/20 07:39:54;;;;;;;18.83;12.38;;;;;;;26.31;45.08;101577.22;6273759;22;20012;-67
2022/07/20 07:42:20;;;;;;;18.58;11.60;;;;;;;26.41;44.81;101585.38;6274500;22;20016;-68
2022/07/20 07:44:45;;;;;;;17.10;12.07;;;;;;;26.48;44.80;101584.84;6275422;22;20007;-67
2022/07/20 07:47:10;;;;;;;16.20;11.52;;;;;;;26.51;44.79;101594.72;6272797;22;20003;-67
2022/07/20 07:49:36;;;;;;;16.42;11.13;;;;;;;26.55;44.80;101604.25;6274727;22;20027;-67
2022/07/20 07:52:01;;;;;;;20.10;11.55;;;;;;;26.56;44.67;101606.72;6274896;22;20003;-67
2022/07/20 07:54:26;;;;;;;22.08;12.10;;;;;;;26.63;44.44;101607.03;6274372;22;20004;-67
2022/07/20 07:56:52;;;;;;;15.73;10.93;;;;;;;26.62;44.30;101599.66;6274577;22;20323;-66
2022/07/20 07:59:17;;;;;;;22.35;10.77;;;;;;;26.73;43.89;101602.13;6273560;22;20347;-67
2022/07/20 08:01:42;;;;;;;18.20;10.82;;;;;;;26.78;44.12;101604.78;6274738;22;20008;-68
2022/07/20 08:04:08;;;;;;;19.20;10.15;;;;;;;26.91;43.71;101589.41;6274623;22;20061;-66
2022/07/20 08:06:33;;;;;;;15.27;10.45;;;;;;;26.95;42.95;101579.00;6274791;22;20082;-68
2022/07/20 08:08:59;;;;;;;16.70;10.15;;;;;;;27.02;43.05;101570.72;6274951;22;20423;-67
2022/07/20 08:11:24;;;;;;;18.85;10.43;;;;;;;27.11;42.98;101564.97;6274702;22;20363;-67
2022/07/20 08:13:50;;;;;;;17.20;10.43;;;;;;;27.19;42.76;101560.38;6273948;22;20004;-67
2022/07/20 08:16:15;;;;;;;16.23;10.25;;;;;;;27.23;42.72;101561.34;6273179;22;20000;-67
2022/07/20 08:18:40;;;;;;;19.45;11.18;;;;;;;27.31;43.17;101554.75;6274548;22;20022;-67
2022/07/20 08:21:06;;;;;;;16.60;10.23;;;;;;;27.30;42.52;101548.22;6273269;22;20000;-67
2022/07/20 08:23:31;;;;;;;14.68;9.15;;;;;;;27.32;42.83;101559.28;6274747;22;20003;-68
2022/07/20 08:25:56;;;;;;;16.85;9.90;;;;;;;27.31;42.60;101563.28;6274825;22;20106;-68
2022/07/20 08:28:22;;;;;;;14.95;9.68;;;;;;;27.35;42.26;101562.25;6273088;22;20010;-68
2022/07/20 08:30:50;;;;;;;17.02;10.45;;;;;;;27.29;42.25;101574.22;6275870;22;20035;-67
2022/07/20 08:33:16;;;;;;;15.98;10.02;;;;;;;27.23;42.34;101587.00;6274971;22;20335;-67
2022/07/20 08:35:42;;;;;;;15.63;9.90;;;;;;;27.29;42.28;101585.63;6274906;22;20087;-68
2022/07/20 08:38:08;;;;;;;17.95;10.93;;;;;;;27.21;42.42;101589.38;6276569;22;20038;-69
2022/07/20 08:40:33;;;;;;;16.38;10.23;;;;;;;27.34;42.29;101593.94;6276645;22;20043;-69
2022/07/20 08:42:58;;;;;;;18.65;9.88;;;;;;;27.40;42.21;101607.66;6275728;22;20045;-69
2022/07/20 08:45:28;;;;;;;14.07;10.20;;;;;;;27.40;42.56;101609.69;6274858;22;20011;-66
2022/07/20 08:47:56;;;;;;;12.35;9.27;;;;;;;27.40;42.41;101595.41;6275282;22;20003;-66
2022/07/20 08:50:27;;;;;;;13.95;9.30;;;;;;;27.48;42.51;101591.66;6274762;22;20019;-66
2022/07/20 08:52:56;;;;;;;15.07;10.48;;;;;;;27.55;42.47;101583.38;6276344;22;20439;-66
2022/07/20 08:55:22;;;;;;;13.80;10.00;;;;;;;27.57;42.33;101589.53;6275936;22;20513;-66
2022/07/20 08:57:48;;;;;;;16.35;10.63;;;;;;;27.51;42.44;101582.41;6276038;22;20046;-66
2022/07/20 09:00:15;;;;;;;13.75;10.18;;;;;;;27.51;42.60;101572.97;6275531;22;20012;-67
2022/07/20 09:03:02;;;;;;;16.88;10.32;;;;;;;27.51;42.72;101553.03;6274998;22;20343;-66
2022/07/20 09:05:29;;;;;;;18.65;10.60;;;;;;;27.44;43.12;101547.09;6276403;22;20526;-67
2022/07/20 09:07:56;;;;;;;16.63;9.98;;;;;;;27.38;43.14;101561.53;6276706;22;20007;-67
2022/07/20 09:10:33;;;;;;;15.10;9.82;;;;;;;27.40;43.05;101582.00;6275050;22;20416;-65
2022/07/20 09:13:03;;;;;;;13.30;9.57;;;;;;;27.39;42.53;101594.59;6276819;22;20006;-66
2022/07/20 09:15:31;;;;;;;17.05;10.27;;;;;;;27.33;42.86;101600.84;6276103;22;20000;-67
2022/07/20 09:18:09;;;;;;;19.45;10.32;;;;;;;27.42;43.00;101604.44;6274016;22;20319;-66
2022/07/20 09:20:37;;;;;;;13.52;10.77;;;;;;;27.40;43.08;101649.59;6275761;22;20447;-67
2022/07/20 09:23:06;;;;;;;17.50;10.55;;;;;;;27.40;43.01;101670.38;6276208;22;20045;-67
2022/07/20 09:25:32;;;;;;;18.42;10.88;;;;;;;27.38;43.12;101672.72;6275626;22;20004;-67
2022/07/20 09:27:57;;;;;;;12.40;9.73;;;;;;;27.38;43.04;101684.13;6275055;22;20365;-67
2022/07/20 09:30:23;;;;;;;18.33;9.95;;;;;;;27.37;43.30;101687.34;6276125;22;20344;-66
2022/07/20 09:32:51;;;;;;;15.25;10.30;;;;;;;27.38;43.35;101666.19;6275265;22;20019;-66
2022/07/20 09:35:17;;;;;;;18.40;10.13;;;;;;;27.58;43.30;101664.50;6276153;22;20077;-66
2022/07/20 09:37:42;;;;;;;16.77;10.35;;;;;;;27.67;43.44;101648.16;6273924;22;20027;-66
2022/07/20 09:40:08;;;;;;;15.35;8.93;;;;;;;27.77;43.17;101656.31;6273285;22;20039;-66
2022/07/20 09:42:41;;;;;;;14.38;10.90;;;;;;;27.76;42.50;101662.38;6276424;22;20015;-66
2022/07/20 09:45:22;;;;;;;15.65;10.10;;;;;;;27.81;42.54;101657.25;6274548;22;20090;-65
2022/07/20 09:48:09;;;;;;;18.35;10.75;;;;;;;27.88;42.73;101651.81;6275406;22;20057;-66
2022/07/20 09:50:43;;;;;;;18.17;10.13;;;;;;;27.96;42.46;101654.94;6275515;22;20039;-66
2022/07/20 09:53:10;;;;;;;17.85;10.65;;;;;;;27.95;42.19;101639.00;6274641;22;20058;-66
2022/07/20 09:55:37;;;;;;;16.67;9.95;;;;;;;28.07;42.50;101628.44;6276165;22;20003;-65
2022/07/20 09:58:03;;;;;;;15.10;9.68;;;;;;;28.12;42.37;101625.38;6275950;22;20101;-66
2022/07/20 10:00:29;;;;;;;14.40;10.02;;;;;;;28.18;41.72;101627.97;6274246;22;20020;-64
2022/07/20 10:02:57;;;;;;;11.63;9.38;;;;;;;28.24;41.38;101638.00;6274367;22;20015;-64
2022/07/20 10:05:22;;;;;;;16.45;9.70;;;;;;;28.22;41.35;101637.50;6275826;22;20030;-64
2022/07/20 10:07:48;;;;;;;16.55;9.48;;;;;;;28.22;41.15;101643.22;6273684;22;20408;-64
2022/07/20 10:10:14;;;;;;;9.73;8.43;;;;;;;28.19;40.76;101658.22;6274692;22;20003;-65
2022/07/20 10:12:39;;;;;;;13.90;8.65;;;;;;;28.17;40.78;101663.44;6275604;22;20027;-65
2022/07/20 10:15:11;;;;;;;13.80;8.73;;;;;;;28.19;40.51;101673.31;6274364;22;20416;-65
2022/07/20 10:17:38;;;;;;;12.32;8.73;;;;;;;28.23;40.99;101665.72;6275045;22;20014;-65
2022/07/20 10:20:07;;;;;;;15.02;8.73;;;;;;;28.28;40.48;101650.38;6272538;22;20007;-65
2022/07/20 10:22:32;;;;;;;11.27;8.20;;;;;;;28.25;41.01;101645.34;6275228;22;20004;-65
2022/07/20 10:25:16;;;;;;;17.85;8.80;;;;;;;28.26;41.01;101644.19;6273992;22;20071;-63
2022/07/20 10:27:42;;;;;;;13.30;8.65;;;;;;;28.21;40.89;101635.84;6273280;22;20000;-65
2022/07/20 10:30:18;;;;;;;12.27;8.90;;;;;;;28.20;41.22;101637.88;6274525;22;20015;-65
2022/07/20 10:32:58;;;;;;;12.30;8.63;;;;;;;28.20;41.65;101635.00;6275479;22;20436;-65
2022/07/20 10:35:30;;;;;;;12.45;8.77;;;;;;;28.27;41.00;101645.84;6274316;22;20003;-65
2022/07/20 10:38:12;;;;;;;15.15;9.05;;;;;;;28.27;41.31;101640.97;6275170;22;20023;-67
2022/07/20 10:55:14;;;;;;;;;;;;;;;;;;;;;
2022/07/20 11:02:29;;;;;;;;;;;;;;;;;;;;;
2022/07/20 11:05:47;;;;;;;13.43;7.82;;;;;;;28.84;40.07;101647.78;5991112;23;20418;-68
2022/07/20 11:09:28;;;;;;;;;;;;;;;;;;;;;
2022/07/20 11:13:03;;;;;;;;;;;;;;;;;;;;;
2022/07/20 21:49:56;;;;;;;10.88;9.35;;;;;;;25.20;53.40;101731.41;6210858;23;20071;-63
2022/07/20 21:52:23;;;;;;;10.55;8.95;;;;;;;25.17;53.25;101745.44;6207231;23;20020;-63
2022/07/20 21:54:48;;;;;;;9.23;8.32;;;;;;;25.06;53.77;101747.72;6208433;23;20005;-63
2022/07/20 21:57:14;;;;;;;9.68;8.73;;;;;;;25.16;53.19;101758.81;6206421;23;20084;-63
2022/07/20 21:59:39;;;;;;;9.05;8.07;;;;;;;25.13;52.98;101758.63;6209026;23;20608;-63
2022/07/20 22:02:04;;;;;;;10.55;9.45;;;;;;;24.87;54.26;101762.19;6211245;23;20425;-63
2022/07/20 22:04:30;;;;;;;10.75;8.77;;;;;;;24.87;54.02;101750.00;6212603;23;20015;-63
2022/07/20 22:06:55;;;;;;;11.60;9.90;;;;;;;24.82;54.65;101753.00;6214625;23;20357;-63
2022/07/20 22:09:20;;;;;;;10.30;9.15;;;;;;;24.92;54.43;101750.69;6215684;23;20009;-63
2022/07/20 22:11:46;;;;;;;10.38;9.30;;;;;;;25.03;54.23;101739.00;6214453;23;20440;-63
2022/07/20 22:14:11;;;;;;;11.55;10.18;;;;;;;24.95;54.28;101727.28;6216200;23;20043;-63
2022/07/20 22:16:36;;;;;;;12.60;9.95;;;;;;;24.93;54.44;101720.28;6214469;23;20067;-63
2022/07/20 22:19:02;;;;;;;12.60;10.15;;;;;;;25.00;54.59;101682.91;6214761;23;20036;-63
2022/07/20 22:21:28;;;;;;;12.73;11.43;;;;;;;24.91;55.41;101682.84;6213607;23;20413;-63
2022/07/20 22:23:56;;;;;;;13.43;10.85;;;;;;;24.94;55.52;101699.22;6214940;23;20082;-63
2022/07/20 22:26:22;;;;;;;13.45;12.05;;;;;;;24.87;55.60;101735.78;6214266;23;20084;-63
2022/07/20 22:28:47;;;;;;;12.85;11.10;;;;;;;24.81;55.19;101728.59;6215209;23;20363;-63
2022/07/20 22:31:13;;;;;;;13.70;12.32;;;;;;;24.75;55.49;101725.06;6215819;23;20471;-63
2022/07/20 22:33:38;;;;;;;13.90;12.50;;;;;;;24.59;56.19;101733.19;6213060;23;20012;-63
2022/07/20 22:36:04;;;;;;;15.55;13.77;;;;;;;24.54;56.70;101723.97;6214464;23;20007;-63
2022/07/20 22:38:29;;;;;;;13.52;12.15;;;;;;;24.74;55.73;101714.88;6215881;23;20001;-63
2022/07/20 22:40:55;;;;;;;15.18;12.98;;;;;;;24.77;55.82;101711.38;6215570;23;20008;-63
2022/07/20 22:43:20;;;;;;;15.93;13.45;;;;;;;24.67;56.41;101715.34;6215303;23;20001;-63
2022/07/20 22:45:46;;;;;;;14.95;13.38;;;;;;;24.72;56.27;101709.53;6214133;23;20004;-63
2022/07/20 22:48:11;;;;;;;16.00;13.25;;;;;;;24.74;55.39;101707.19;6222942;23;20038;-63
2022/07/20 22:50:36;;;;;;;14.10;12.60;;;;;;;24.68;55.73;101704.81;6245726;23;20075;-63
2022/07/20 22:53:02;;;;;;;14.50;13.05;;;;;;;24.56;56.65;101708.28;6243470;23;20014;-63
2022/07/20 22:55:28;;;;;;;15.25;13.10;;;;;;;24.56;56.57;101705.44;6242746;23;20004;-62
2022/07/20 22:57:53;;;;;;;13.68;12.20;;;;;;;24.61;56.24;101701.66;6246285;23;20324;-62
2022/07/20 23:00:22;;;;;;;15.15;13.55;;;;;;;24.54;56.81;101713.47;6244471;23;20421;-63
2022/07/20 23:02:49;;;;;;;16.65;14.85;;;;;;;24.35;57.59;101721.34;6245509;23;20070;-63
2022/07/20 23:05:16;;;;;;;15.57;13.40;;;;;;;24.31;57.76;101717.50;6244882;23;20008;-63
2022/07/20 23:07:44;;;;;;;16.38;13.85;;;;;;;24.18;57.71;101717.25;6244380;23;20004;-63
2022/07/20 23:10:12;;;;;;;15.05;13.55;;;;;;;24.17;58.04;101709.91;6244329;23;20004;-64
2022/07/20 23:12:38;;;;;;;14.57;13.05;;;;;;;24.21;57.95;101702.44;6245787;23;20011;-64
2022/07/20 23:15:05;;;;;;;14.15;12.70;;;;;;;24.20;57.70;101699.91;6245122;23;20050;-62
2022/07/20 23:17:32;;;;;;;13.88;12.48;;;;;;;24.02;57.55;101696.13;6244975;23;20008;-63
2022/07/20 23:19:58;;;;;;;14.93;11.85;;;;;;;23.98;57.45;101695.94;6245966;23;20027;-63
2022/07/20 23:22:23;;;;;;;12.35;11.15;;;;;;;23.97;57.20;101699.09;6244447;23;20487;-63
2022/07/20 23:24:48;;;;;;;12.93;10.57;;;;;;;23.94;57.03;101688.41;6246151;23;20310;-63
2022/07/20 23:27:14;;;;;;;13.50;10.90;;;;;;;23.90;57.26;101691.06;6245250;23;20000;-64
2022/07/20 23:29:39;;;;;;;12.20;10.95;;;;;;;23.82;57.07;101689.00;6245191;23;20050;-63
2022/07/20 23:32:05;;;;;;;12.20;10.98;;;;;;;23.83;57.04;101687.00;6246069;23;20008;-63
2022/07/20 23:34:30;;;;;;;11.38;10.27;;;;;;;23.95;56.89;101682.41;6246164;23;20412;-63
2022/07/20 23:36:58;;;;;;;11.27;9.52;;;;;;;24.03;56.60;101688.47;6244475;23;20336;-63
2022/07/20 23:39:23;;;;;;;12.88;10.45;;;;;;;24.05;56.17;101684.16;6245198;23;20008;-63
2022/07/20 23:41:48;;;;;;;10.98;9.77;;;;;;;23.99;56.00;101669.25;6245598;23;20309;-63
2022/07/20 23:44:14;;;;;;;10.93;8.77;;;;;;;23.93;56.24;101675.38;6244898;23;20323;-63
2022/07/20 23:46:39;;;;;;;9.82;8.82;;;;;;;23.86;56.19;101667.34;6246236;23;20019;-63
2022/07/20 23:49:05;;;;;;;9.38;8.40;;;;;;;23.98;55.57;101661.09;6244471;23;20036;-63
2022/07/20 23:51:30;;;;;;;9.95;8.95;;;;;;;23.92;55.87;101660.38;6245454;23;20008;-63
2022/07/20 23:53:55;;;;;;;10.30;8.60;;;;;;;23.94;55.75;101665.72;6245552;23;20311;-63
2022/07/20 23:56:21;;;;;;;10.45;9.35;;;;;;;23.79;56.26;101660.47;6244964;23;20008;-64
2022/07/20 23:58:46;;;;;;;11.18;8.55;;;;;;;23.79;56.27;101666.13;6245792;23;20368;-64
